aviador You're here:

KBIS Decoded Metar

BISMARCK in ND, USA
Report Time2018-01-23 03:52:00
UTC Time2018-01-23 04:07:04
Flight Rules lifr LIFR
Wind190° at 03 kt
W.Decomp.*RWY 21: 2.7 kt HW 1.4 kt LCW
RWY 13: 1.8 kt HW 2.4 kt RCW
W.Rank190° ranks 36
Current wind is below 190° avg. (8.0)
Visibility805 m
Phenomena:Freezing Fog
Clouds:N/A
Expected CloudBase > 800 ft AGL from Temp-Dew spread
Ceiling300 ft
Temp-5°C (ISA -17)
Dew Point-7°C (86% RH)
AAT-8.9°C
QNH1017 hPa
Density Alt-479 ft
Elevation1,657 ft
Report Wrong Elevation
Raw Report
METAR KBIS 230352Z 19003KT 1/2SM FZFG VV003 M05/M07 A3004 RMK AO2 SLP202
I1001 T10501067 $=

Extra information for KBIS:More info

Metar Taf Metar & Taf Last 4 Metars F.Rules Stats Wind Profile Meteogram Temp Stats Airport Information Weather charts Add Link Nearby VenuesMetar ALERT Operation Metar Decoded Social comments

AIRNAV info for KBIS